createdAt,value
2024-01-20T00:01:43.957Z,4.67
2024-01-20T00:04:12.712Z,4.97
2024-01-20T00:06:43.440Z,5.00
2024-01-20T00:09:13.368Z,4.60
2024-01-20T00:11:42.150Z,4.93
2024-01-20T00:14:10.749Z,6.00
2024-01-20T00:16:40.431Z,4.73
2024-01-20T00:19:09.396Z,4.33
2024-01-20T00:21:39.351Z,5.00
2024-01-20T00:24:08.382Z,5.60
2024-01-20T00:26:37.384Z,5.30
2024-01-20T00:29:07.465Z,5.17
2024-01-20T00:31:35.886Z,4.73
2024-01-20T00:34:06.162Z,4.80
2024-01-20T00:36:34.480Z,4.80
2024-01-20T00:39:02.989Z,4.80
2024-01-20T00:41:31.482Z,4.80
2024-01-20T00:44:00.760Z,4.93
2024-01-20T00:46:29.102Z,4.83
2024-01-20T00:48:57.701Z,5.33
2024-01-20T00:54:40.059Z,4.53
2024-01-20T00:57:08.386Z,5.20
2024-01-20T00:59:37.007Z,4.40
2024-01-20T01:02:06.162Z,4.60
2024-01-20T01:04:34.756Z,5.27
2024-01-20T01:07:04.459Z,5.53
2024-01-20T01:09:33.040Z,4.73
2024-01-20T01:12:01.322Z,4.60
2024-01-20T01:14:30.036Z,4.90
2024-01-20T01:17:01.116Z,3.90
2024-01-20T01:19:29.755Z,4.83
2024-01-20T01:21:57.959Z,5.07
2024-01-20T01:24:27.880Z,5.47
2024-01-20T01:26:56.187Z,4.93
2024-01-20T01:29:24.912Z,5.53
2024-01-20T01:31:53.268Z,5.40
2024-01-20T01:34:21.858Z,4.47
2024-01-20T01:36:50.518Z,5.17
2024-01-20T01:39:19.121Z,4.87
2024-01-20T01:41:48.808Z,4.50
2024-01-20T01:44:17.505Z,4.37
2024-01-20T01:46:46.027Z,3.90
2024-01-20T01:49:14.936Z,5.37
2024-01-20T01:51:43.223Z,5.33
2024-01-20T01:54:12.201Z,5.40
2024-01-20T01:56:43.757Z,5.30
2024-01-20T01:59:14.263Z,5.40
2024-01-20T02:01:43.138Z,5.60
2024-01-20T02:04:12.136Z,5.67
2024-01-20T02:06:41.129Z,6.20
2024-01-20T02:09:11.375Z,5.33
2024-01-20T02:11:41.191Z,5.40
2024-01-20T02:14:10.400Z,5.43
2024-01-20T02:16:40.034Z,4.70
2024-01-20T02:19:08.894Z,5.13
2024-01-20T02:21:39.318Z,6.53
2024-01-20T02:24:13.187Z,5.60
2024-01-20T02:26:41.505Z,5.43
2024-01-20T02:29:10.267Z,4.93
2024-01-20T02:31:40.402Z,4.87
2024-01-20T02:34:09.219Z,5.00
2024-01-20T02:36:37.564Z,5.20
2024-01-20T02:39:06.091Z,5.33
2024-01-20T02:41:35.941Z,5.33
2024-01-20T02:44:05.510Z,5.67
2024-01-20T02:46:33.905Z,5.87
2024-01-20T02:49:02.609Z,5.17
2024-01-20T02:51:31.161Z,6.00
2024-01-20T02:54:00.636Z,4.90
2024-01-20T02:56:28.923Z,5.20
2024-01-20T02:58:58.887Z,4.50
2024-01-20T03:01:27.467Z,4.80
2024-01-20T03:03:56.142Z,5.17
2024-01-20T03:06:24.548Z,5.07
2024-01-20T03:08:53.042Z,5.63
2024-01-20T03:11:21.310Z,4.27
2024-01-20T03:13:50.031Z,6.23
2024-01-20T03:16:19.813Z,6.70
2024-01-20T03:18:48.489Z,5.73
2024-01-20T03:21:16.832Z,5.40
2024-01-20T03:23:45.450Z,5.53
2024-01-20T03:26:14.185Z,4.30
2024-01-20T03:28:43.011Z,5.43
2024-01-20T03:31:11.264Z,5.53
2024-01-20T03:33:41.450Z,6.10
2024-01-20T03:36:11.134Z,7.13
2024-01-20T03:38:39.979Z,5.70
2024-01-20T03:41:08.840Z,6.07
2024-01-20T03:43:37.476Z,6.27
2024-01-20T03:46:05.976Z,5.60
2024-01-20T03:48:34.629Z,4.93
2024-01-20T03:51:05.006Z,5.10
2024-01-20T03:53:33.541Z,5.47
2024-01-20T03:56:03.187Z,4.50
2024-01-20T03:58:31.737Z,5.20
2024-01-20T04:01:00.052Z,5.30
2024-01-20T04:03:28.770Z,6.30
2024-01-20T04:05:57.167Z,5.20
2024-01-20T04:08:27.259Z,4.77
2024-01-20T04:10:55.533Z,5.07
2024-01-20T04:13:24.193Z,4.77
2024-01-20T04:15:54.727Z,6.23
2024-01-20T04:18:23.499Z,5.20
2024-01-20T04:20:51.870Z,5.97
2024-01-20T04:23:20.453Z,5.57
2024-01-20T04:25:50.646Z,5.97
2024-01-20T04:28:19.273Z,5.20
2024-01-20T04:30:47.905Z,5.27
2024-01-20T04:33:16.792Z,4.97
2024-01-20T04:35:45.085Z,5.30
2024-01-20T04:38:13.621Z,4.13
2024-01-20T04:40:42.132Z,5.60
2024-01-20T04:43:12.103Z,4.97
2024-01-20T04:45:40.466Z,4.90
2024-01-20T04:48:09.346Z,4.93
2024-01-20T04:50:41.118Z,4.53
2024-01-20T04:53:09.716Z,5.23
2024-01-20T04:55:39.474Z,6.03
2024-01-20T04:58:08.117Z,4.90
2024-01-20T05:00:38.226Z,4.67
2024-01-20T05:03:06.895Z,4.97
2024-01-20T05:05:35.484Z,4.60
2024-01-20T05:08:05.353Z,5.23
2024-01-20T05:10:34.482Z,7.50
2024-01-20T05:13:05.324Z,4.80
2024-01-20T05:15:34.248Z,5.93
2024-01-20T05:18:04.657Z,4.93
2024-01-20T05:20:33.317Z,5.43
2024-01-20T05:23:01.894Z,4.83
2024-01-20T05:25:30.175Z,5.33
2024-01-20T05:27:58.859Z,4.97
2024-01-20T05:30:27.145Z,5.60
2024-01-20T05:32:55.843Z,4.77
2024-01-20T05:35:25.800Z,4.23
2024-01-20T05:37:54.371Z,5.70
2024-01-20T05:40:22.725Z,6.43
2024-01-20T05:42:51.289Z,5.13
2024-01-20T05:45:19.718Z,6.40
2024-01-20T05:47:48.509Z,4.53
2024-01-20T05:50:17.002Z,4.73
2024-01-20T05:52:46.912Z,5.80
2024-01-20T05:55:15.207Z,5.63
2024-01-20T05:57:44.230Z,4.87
2024-01-20T06:00:13.512Z,4.13
2024-01-20T06:02:42.137Z,5.03
2024-01-20T06:05:11.006Z,5.47
2024-01-20T06:07:39.511Z,5.27
2024-01-20T06:10:10.125Z,5.50
2024-01-20T06:12:38.835Z,5.40
2024-01-20T06:15:08.510Z,4.83
2024-01-20T06:17:37.187Z,5.43
2024-01-20T06:20:06.089Z,5.33
2024-01-20T06:22:34.761Z,5.47
2024-01-20T06:25:03.088Z,5.53
2024-01-20T06:27:33.996Z,4.80
2024-01-20T06:30:02.507Z,5.03
2024-01-20T06:32:31.201Z,5.40
2024-01-20T06:34:59.553Z,5.97
2024-01-20T06:37:28.159Z,4.60
2024-01-20T06:39:56.521Z,5.30
2024-01-20T06:42:31.033Z,5.30
2024-01-20T06:45:01.578Z,5.43
2024-01-20T06:47:31.336Z,6.57
2024-01-20T06:49:59.799Z,5.40
2024-01-20T06:52:30.807Z,5.23
2024-01-20T06:54:59.262Z,4.83
2024-01-20T06:57:27.908Z,5.17
2024-01-20T06:59:56.189Z,5.27
2024-01-20T07:02:26.123Z,5.47
2024-01-20T07:04:54.563Z,4.20
2024-01-20T07:07:24.981Z,4.80
2024-01-20T07:09:53.260Z,5.30
2024-01-20T07:12:25.863Z,5.77
2024-01-20T07:14:54.485Z,5.13
2024-01-20T07:17:23.353Z,5.97
2024-01-20T07:19:53.170Z,6.17
2024-01-20T07:22:21.753Z,6.17
2024-01-20T07:24:50.591Z,5.83
2024-01-20T07:27:19.568Z,6.10
2024-01-20T07:29:48.060Z,6.63
2024-01-20T07:32:16.862Z,5.67
2024-01-20T07:34:45.339Z,5.50
2024-01-20T07:37:17.060Z,5.47
2024-01-20T07:39:48.132Z,5.63
2024-01-20T07:42:22.506Z,5.90
2024-01-20T07:44:52.731Z,5.23
2024-01-20T07:47:21.388Z,5.13
2024-01-20T07:49:49.725Z,4.97
2024-01-20T07:52:19.736Z,5.30
2024-01-20T07:54:48.354Z,5.40
2024-01-20T07:57:16.997Z,5.23
2024-01-20T07:59:45.245Z,5.00
2024-01-20T08:02:14.298Z,5.10
2024-01-20T08:04:42.707Z,5.47
2024-01-20T08:07:17.330Z,6.30
2024-01-20T08:09:47.915Z,5.50
2024-01-20T08:12:16.627Z,5.60
2024-01-20T08:14:50.341Z,6.07
2024-01-20T08:17:24.178Z,6.00
2024-01-20T08:19:52.488Z,5.50
2024-01-20T08:22:21.099Z,5.67
2024-01-20T08:24:50.759Z,5.70
2024-01-20T08:27:20.980Z,4.90
2024-01-20T08:29:49.477Z,5.07
2024-01-20T08:32:18.126Z,5.43
2024-01-20T08:34:46.626Z,5.43
2024-01-20T08:37:15.477Z,5.10
2024-01-20T08:39:43.694Z,5.83
2024-01-20T08:42:13.965Z,5.77
2024-01-20T08:44:42.286Z,5.23
2024-01-20T08:47:11.352Z,5.70
2024-01-20T08:49:39.915Z,5.60
2024-01-20T08:52:08.491Z,5.10
2024-01-20T08:54:41.239Z,5.93
2024-01-20T08:57:09.846Z,5.67
2024-01-20T08:59:40.047Z,5.20
2024-01-20T09:02:08.672Z,5.00
2024-01-20T09:04:37.031Z,4.90
2024-01-20T09:07:06.686Z,6.37
2024-01-20T09:09:35.177Z,5.60
2024-01-20T09:12:12.952Z,6.03
2024-01-20T09:14:57.563Z,5.00
2024-01-20T09:17:26.311Z,5.00
2024-01-20T09:19:54.799Z,5.30
2024-01-20T09:22:23.493Z,5.97
2024-01-20T09:24:53.433Z,5.70
2024-01-20T09:27:24.415Z,5.57
2024-01-20T09:29:53.048Z,6.73
2024-01-20T09:32:22.977Z,4.70
2024-01-20T09:34:51.219Z,6.27
2024-01-20T09:37:19.786Z,4.83
2024-01-20T09:40:06.976Z,5.30
2024-01-20T09:42:36.092Z,5.60
2024-01-20T09:48:03.897Z,5.10
2024-01-20T09:50:32.742Z,5.13
2024-01-20T09:53:10.208Z,5.73
2024-01-20T09:55:39.192Z,5.77
2024-01-20T09:58:12.317Z,6.67
2024-01-20T10:00:41.865Z,5.43
2024-01-20T10:03:13.626Z,5.40
2024-01-20T10:05:42.743Z,5.27
2024-01-20T10:08:11.967Z,4.40
2024-01-20T10:10:40.581Z,5.20
2024-01-20T10:13:08.984Z,5.43
2024-01-20T10:15:37.789Z,5.90
2024-01-20T10:18:12.547Z,5.47
2024-01-20T10:20:41.746Z,6.43
2024-01-20T10:23:10.067Z,4.40
2024-01-20T10:25:38.964Z,4.87
2024-01-20T10:28:09.122Z,4.57
2024-01-20T10:30:40.433Z,5.47
2024-01-20T10:33:11.878Z,6.50
2024-01-20T10:35:40.698Z,5.70
2024-01-20T10:38:14.764Z,6.87
2024-01-20T10:40:46.329Z,5.53
2024-01-20T10:43:17.149Z,6.07
2024-01-20T10:45:52.332Z,5.40
2024-01-20T10:48:27.340Z,5.40
2024-01-20T10:51:00.358Z,5.30
2024-01-20T10:53:32.325Z,5.20
2024-01-20T10:56:01.671Z,5.17
2024-01-20T10:58:35.249Z,4.60
2024-01-20T11:01:05.110Z,4.77
2024-01-20T11:03:35.652Z,4.67
2024-01-20T11:06:05.948Z,5.30
2024-01-20T11:08:34.439Z,4.80
2024-01-20T11:11:03.127Z,5.23
2024-01-20T11:13:32.514Z,5.73
2024-01-20T11:16:01.133Z,4.53
2024-01-20T11:18:29.486Z,5.77
2024-01-20T11:21:04.519Z,5.50
2024-01-20T11:23:33.282Z,5.67
2024-01-20T11:26:13.421Z,5.43
2024-01-20T11:28:45.437Z,5.50
2024-01-20T11:31:20.953Z,5.07
2024-01-20T11:33:49.491Z,4.50
2024-01-20T11:36:20.042Z,5.17
2024-01-20T11:38:49.328Z,4.90
2024-01-20T11:41:19.556Z,5.30
2024-01-20T11:43:48.238Z,4.80
2024-01-20T11:46:16.983Z,4.77
2024-01-20T11:48:49.008Z,4.30
2024-01-20T11:51:22.142Z,4.37
2024-01-20T11:53:50.787Z,4.57
2024-01-20T11:56:19.659Z,4.97
2024-01-20T11:58:48.575Z,4.73
2024-01-20T12:01:18.736Z,4.73
2024-01-20T12:03:47.302Z,4.20
2024-01-20T12:06:17.248Z,4.37
2024-01-20T12:08:47.810Z,4.10
2024-01-20T12:11:20.422Z,4.40
2024-01-20T12:13:48.956Z,6.27
2024-01-20T12:16:18.777Z,3.93
2024-01-20T12:18:47.745Z,4.07
2024-01-20T12:21:16.469Z,4.50
2024-01-20T12:23:44.800Z,4.53
2024-01-20T12:26:15.917Z,4.10
2024-01-20T12:28:46.596Z,4.57
2024-01-20T12:31:18.412Z,4.20
2024-01-20T12:33:49.134Z,4.73
2024-01-20T12:36:18.106Z,4.43
2024-01-20T12:38:47.119Z,3.63
2024-01-20T12:41:17.610Z,4.43
2024-01-20T12:43:49.671Z,4.87
2024-01-20T12:46:18.709Z,4.40
2024-01-20T12:48:47.452Z,4.43
2024-01-20T12:51:16.246Z,4.90
2024-01-20T12:53:45.246Z,3.90
2024-01-20T12:56:13.583Z,4.10
2024-01-20T12:58:43.500Z,4.13
2024-01-20T13:01:12.048Z,4.27
2024-01-20T13:03:41.078Z,4.10
2024-01-20T13:06:09.424Z,4.73
2024-01-20T13:08:38.167Z,4.93
2024-01-20T13:11:06.965Z,5.33
2024-01-20T13:13:36.270Z,4.57
2024-01-20T13:16:07.332Z,4.80
2024-01-20T13:18:36.211Z,4.97
2024-01-20T13:21:04.890Z,5.50
2024-01-20T13:23:33.527Z,4.53
2024-01-20T13:26:02.795Z,4.87
2024-01-20T13:28:35.095Z,4.70
2024-01-20T13:31:04.933Z,4.90
2024-01-20T13:33:33.732Z,5.20
2024-01-20T13:36:02.093Z,4.17
2024-01-20T13:38:31.115Z,4.57
2024-01-20T13:41:01.944Z,5.13
2024-01-20T13:43:30.570Z,4.43
2024-01-20T13:45:59.065Z,4.53
2024-01-20T13:48:29.400Z,4.93
2024-01-20T13:50:57.745Z,5.30
2024-01-20T13:53:26.571Z,5.43
2024-01-20T13:55:55.265Z,5.70
2024-01-20T13:58:24.034Z,5.30
2024-01-20T14:00:53.228Z,5.03
2024-01-20T14:03:22.075Z,4.67
2024-01-20T14:05:52.053Z,4.60
2024-01-20T14:08:22.671Z,4.93
2024-01-20T14:10:51.002Z,4.70
2024-01-20T14:13:19.652Z,4.87
2024-01-20T14:15:48.233Z,3.60
2024-01-20T14:18:17.330Z,4.93
2024-01-20T14:20:45.640Z,4.20
2024-01-20T14:23:15.770Z,4.23
2024-01-20T14:25:44.117Z,4.73
2024-01-20T14:28:12.688Z,4.23
2024-01-20T14:30:42.668Z,5.17
2024-01-20T14:33:12.248Z,5.37
2024-01-20T14:35:40.676Z,4.57
2024-01-20T14:38:09.744Z,4.43
2024-01-20T14:40:39.603Z,4.67
2024-01-20T14:43:08.268Z,4.90
2024-01-20T14:45:36.696Z,4.60
2024-01-20T14:48:06.533Z,4.37
2024-01-20T14:50:35.118Z,4.70
2024-01-20T14:53:04.011Z,4.33
2024-01-20T14:55:32.276Z,5.50
2024-01-20T14:58:02.213Z,4.80
2024-01-20T15:00:30.530Z,4.67
2024-01-20T15:02:59.079Z,3.97
2024-01-20T15:05:27.703Z,5.27
2024-01-20T15:07:57.188Z,4.27
2024-01-20T15:10:25.623Z,5.00
2024-01-20T15:12:54.271Z,4.83
2024-01-20T15:15:23.901Z,5.60
2024-01-20T15:17:52.534Z,4.23
2024-01-20T15:20:22.377Z,4.50
2024-01-20T15:22:50.915Z,4.90
2024-01-20T15:25:19.884Z,6.87
2024-01-20T15:27:49.181Z,5.27
2024-01-20T15:30:17.922Z,6.47
2024-01-20T15:32:47.837Z,5.30
2024-01-20T15:35:16.400Z,6.83
2024-01-20T15:37:44.581Z,4.83
2024-01-20T15:40:14.026Z,4.80
2024-01-20T15:42:42.431Z,5.60
2024-01-20T15:45:11.603Z,6.20
2024-01-20T15:47:39.953Z,4.90
2024-01-20T15:50:10.698Z,5.07
2024-01-20T15:52:39.155Z,5.73
2024-01-20T15:55:08.602Z,4.53
2024-01-20T15:57:37.432Z,5.80
2024-01-20T16:00:07.258Z,4.63
2024-01-20T16:02:35.660Z,4.90
2024-01-20T16:05:05.208Z,6.20
2024-01-20T16:07:34.784Z,5.67
2024-01-20T16:10:04.643Z,5.20
2024-01-20T16:12:33.244Z,5.80
2024-01-20T16:15:01.873Z,4.63
2024-01-20T16:17:30.391Z,5.27
2024-01-20T16:19:59.022Z,4.87
2024-01-20T16:22:28.839Z,4.73
2024-01-20T16:24:59.809Z,5.47
2024-01-20T16:27:28.046Z,4.30
2024-01-20T16:29:56.893Z,4.97
2024-01-20T16:32:25.311Z,4.10
2024-01-20T16:34:54.170Z,5.80
2024-01-20T16:37:22.450Z,4.63
2024-01-20T16:39:51.276Z,4.63
2024-01-20T16:42:22.441Z,5.57
2024-01-20T16:44:51.994Z,5.17
2024-01-20T16:47:20.206Z,5.47
2024-01-20T16:49:49.057Z,6.97
2024-01-20T16:52:17.574Z,8.33
2024-01-20T16:54:46.378Z,8.10
2024-01-20T16:57:15.931Z,8.00
2024-01-20T16:59:47.874Z,12.43
2024-01-20T17:02:16.540Z,10.00
2024-01-20T17:04:45.197Z,9.73
2024-01-20T17:07:13.590Z,8.87
2024-01-20T17:09:43.175Z,9.10
2024-01-20T17:12:11.529Z,11.07
2024-01-20T17:14:40.437Z,10.00
2024-01-20T17:17:10.073Z,9.47
2024-01-20T17:19:38.712Z,9.53
2024-01-20T17:22:06.938Z,10.50
2024-01-20T17:24:35.920Z,10.77
2024-01-20T17:27:04.558Z,9.63
2024-01-20T17:29:33.368Z,9.60
2024-01-20T17:32:02.706Z,8.60
2024-01-20T17:34:34.932Z,9.30
2024-01-20T17:37:03.488Z,7.63
2024-01-20T17:39:36.238Z,7.87
2024-01-20T17:42:05.787Z,7.67
2024-01-20T17:44:34.702Z,7.70
2024-01-20T17:47:02.903Z,8.30
2024-01-20T17:49:33.043Z,5.67
2024-01-20T17:52:01.408Z,6.47
2024-01-20T17:54:32.917Z,6.77
2024-01-20T17:57:01.480Z,6.27
2024-01-20T17:59:30.397Z,7.03
2024-01-20T18:01:58.874Z,6.57
2024-01-20T18:04:27.673Z,6.63
2024-01-20T18:06:57.346Z,6.67
2024-01-20T18:09:26.348Z,5.80
2024-01-20T18:11:55.042Z,6.33
2024-01-20T18:14:23.636Z,6.10
2024-01-20T18:16:53.124Z,5.70
2024-01-20T18:19:21.766Z,6.53
2024-01-20T18:21:50.265Z,5.07
2024-01-20T18:24:20.218Z,5.63
2024-01-20T18:26:48.774Z,7.47
2024-01-20T18:29:17.646Z,5.13
2024-01-20T18:31:45.870Z,6.50
2024-01-20T18:34:14.501Z,6.30
2024-01-20T18:36:42.883Z,6.13
2024-01-20T18:39:11.488Z,6.67
2024-01-20T18:41:41.305Z,7.43
2024-01-20T18:44:09.867Z,6.57
2024-01-20T18:46:38.123Z,6.60
2024-01-20T18:49:06.713Z,6.53
2024-01-20T18:51:35.141Z,6.77
2024-01-20T18:54:03.635Z,7.37
2024-01-20T18:56:32.080Z,6.93
2024-01-20T18:59:02.139Z,6.70
2024-01-20T19:01:30.766Z,8.87
2024-01-20T19:04:00.359Z,7.83
2024-01-20T19:06:30.889Z,7.43
2024-01-20T19:08:59.810Z,9.83
2024-01-20T19:11:28.014Z,8.00
2024-01-20T19:13:57.483Z,7.63
2024-01-20T19:16:27.143Z,8.90
2024-01-20T19:18:55.764Z,7.50
2024-01-20T19:21:24.107Z,7.53
2024-01-20T19:23:52.730Z,7.80
2024-01-20T19:26:20.908Z,7.83
2024-01-20T19:28:49.439Z,7.00
2024-01-20T19:31:17.765Z,7.87
2024-01-20T19:33:48.566Z,7.37
2024-01-20T19:36:16.900Z,7.87
2024-01-20T19:38:45.457Z,6.57
2024-01-20T19:41:13.835Z,7.37
2024-01-20T19:43:42.360Z,6.60
2024-01-20T19:46:10.697Z,7.93
2024-01-20T19:48:39.392Z,7.67
2024-01-20T19:51:09.069Z,7.63
2024-01-20T19:53:37.816Z,7.70
2024-01-20T19:56:07.686Z,7.47
2024-01-20T19:58:37.745Z,7.70
2024-01-20T20:01:06.413Z,8.63
2024-01-20T20:03:35.096Z,7.83
2024-01-20T20:06:03.667Z,7.40
2024-01-20T20:08:33.712Z,8.43
2024-01-20T20:11:02.030Z,7.30
2024-01-20T20:13:31.013Z,7.57
2024-01-20T20:15:59.814Z,7.33
2024-01-20T20:18:30.925Z,7.37
2024-01-20T20:20:59.405Z,7.83
2024-01-20T20:23:27.957Z,7.73
2024-01-20T20:25:57.502Z,7.13
2024-01-20T20:28:26.241Z,6.97
2024-01-20T20:31:00.996Z,7.43
2024-01-20T20:33:32.913Z,6.77
2024-01-20T20:36:01.349Z,7.60
2024-01-20T20:38:29.976Z,7.03
2024-01-20T20:41:01.081Z,7.70
2024-01-20T20:43:30.561Z,7.60
2024-01-20T20:45:58.833Z,6.57
2024-01-20T20:48:28.601Z,7.93
2024-01-20T20:50:56.845Z,7.33
2024-01-20T20:53:25.698Z,7.13
2024-01-20T20:55:54.020Z,6.67
2024-01-20T20:58:25.242Z,7.60
2024-01-20T21:00:53.618Z,6.33
2024-01-20T21:03:23.575Z,7.07
2024-01-20T21:05:52.039Z,6.97
2024-01-20T21:08:20.594Z,7.33
2024-01-20T21:10:48.887Z,7.50
2024-01-20T21:13:17.429Z,7.63
2024-01-20T21:15:47.042Z,7.73
2024-01-20T21:18:15.776Z,6.23
2024-01-20T21:20:44.165Z,7.37
2024-01-20T21:23:13.218Z,7.47
2024-01-20T21:25:41.570Z,6.57
2024-01-20T21:28:10.387Z,5.80
2024-01-20T21:30:38.656Z,7.20
2024-01-20T21:33:10.160Z,6.77
2024-01-20T21:35:38.886Z,7.43
2024-01-20T21:38:08.216Z,6.43
2024-01-20T21:40:36.703Z,7.10
2024-01-20T21:43:05.591Z,6.80
2024-01-20T21:45:34.001Z,7.23
2024-01-20T21:48:02.584Z,6.87
2024-01-20T21:50:32.256Z,6.90
2024-01-20T21:53:00.777Z,6.30
2024-01-20T21:55:29.039Z,7.83
2024-01-20T21:57:59.362Z,6.77
2024-01-20T22:00:28.438Z,6.00
2024-01-20T22:02:57.397Z,6.93
2024-01-20T22:05:25.814Z,6.57
2024-01-20T22:08:00.119Z,5.50
2024-01-20T22:10:29.049Z,6.53
2024-01-20T22:12:57.685Z,6.47
2024-01-20T22:15:26.162Z,8.53
2024-01-20T22:17:55.006Z,14.03
2024-01-20T22:20:24.143Z,13.60
2024-01-20T22:22:53.653Z,17.93
2024-01-20T22:25:23.318Z,14.83
2024-01-20T22:27:51.881Z,26.67
2024-01-20T22:30:20.743Z,22.13
2024-01-20T22:32:52.268Z,23.23
2024-01-20T22:35:20.724Z,28.43
2024-01-20T22:37:49.717Z,25.00
2024-01-20T22:40:18.359Z,24.17
2024-01-20T22:42:48.279Z,21.80
2024-01-20T22:45:17.548Z,21.17
2024-01-20T22:47:48.778Z,21.57
2024-01-20T22:50:17.307Z,20.77
2024-01-20T22:52:47.979Z,19.77
2024-01-20T22:55:17.911Z,21.40
2024-01-20T22:57:48.091Z,18.50
2024-01-20T23:00:26.776Z,19.33
2024-01-20T23:02:56.244Z,17.67
2024-01-20T23:05:25.182Z,16.97
2024-01-20T23:07:54.542Z,18.17
2024-01-20T23:10:22.755Z,17.23
2024-01-20T23:12:52.857Z,15.97
2024-01-20T23:15:21.286Z,15.07
2024-01-20T23:17:49.867Z,15.73
2024-01-20T23:20:18.535Z,11.63
2024-01-20T23:22:47.089Z,12.77
2024-01-20T23:25:15.602Z,12.40
2024-01-20T23:27:44.210Z,13.33
2024-01-20T23:30:14.791Z,11.77
2024-01-20T23:32:43.769Z,12.27
2024-01-20T23:35:12.781Z,12.53
2024-01-20T23:37:41.575Z,13.03
2024-01-20T23:40:12.430Z,13.57
2024-01-20T23:42:41.085Z,12.20
2024-01-20T23:45:10.404Z,11.87
2024-01-20T23:47:56.661Z,12.07
2024-01-20T23:50:24.979Z,10.40
2024-01-20T23:52:53.631Z,10.97
2024-01-20T23:55:22.016Z,10.77
2024-01-20T23:57:50.733Z,10.20
